createdAt,value
2019-04-26T00:01:42.705Z,33.13
2019-04-26T00:04:10.320Z,33.12
2019-04-26T00:06:37.300Z,33.14
2019-04-26T00:09:04.248Z,33.17
2019-04-26T00:11:33.142Z,33.18
2019-04-26T00:14:00.120Z,33.19
2019-04-26T00:16:27.406Z,33.20
2019-04-26T00:18:54.277Z,33.29
2019-04-26T00:21:21.287Z,33.30
2019-04-26T00:23:50.608Z,33.34
2019-04-26T00:26:17.772Z,33.38
2019-04-26T00:28:46.014Z,33.32
2019-04-26T00:31:12.945Z,33.39
2019-04-26T00:33:40.235Z,33.45
2019-04-26T00:36:07.488Z,33.44
2019-04-26T00:38:34.833Z,33.39
2019-04-26T00:41:01.779Z,33.50
2019-04-26T00:43:29.034Z,33.57
2019-04-26T00:45:55.916Z,33.74
2019-04-26T00:48:23.974Z,33.79
2019-04-26T00:50:50.905Z,33.84
2019-04-26T00:53:18.148Z,33.85
2019-04-26T00:55:45.014Z,33.92
2019-04-26T00:58:12.329Z,33.94
2019-04-26T01:00:39.231Z,33.99
2019-04-26T01:03:07.566Z,34.00
2019-04-26T01:05:34.814Z,34.03
2019-04-26T01:08:01.683Z,34.07
2019-04-26T01:10:28.911Z,34.19
2019-04-26T01:12:56.065Z,34.22
2019-04-26T01:15:24.612Z,34.21
2019-04-26T01:17:51.708Z,34.35
2019-04-26T01:20:19.007Z,34.41
2019-04-26T01:22:45.892Z,34.41
2019-04-26T01:25:12.784Z,34.35
2019-04-26T01:27:39.730Z,34.33
2019-04-26T01:30:06.946Z,34.33
2019-04-26T01:32:33.817Z,34.33
2019-04-26T01:35:00.765Z,34.43
2019-04-26T01:37:28.681Z,34.29
2019-04-26T01:39:55.946Z,34.28
2019-04-26T01:42:22.836Z,34.32
2019-04-26T01:44:49.698Z,34.26
2019-04-26T01:47:17.897Z,34.26
2019-04-26T01:49:44.788Z,34.27
2019-04-26T01:52:11.811Z,34.27
2019-04-26T01:54:39.051Z,34.30
2019-04-26T01:57:06.212Z,34.37
2019-04-26T01:59:33.160Z,34.39
2019-04-26T02:02:00.085Z,34.44
2019-04-26T02:04:27.830Z,34.53
2019-04-26T02:06:55.119Z,34.68
2019-04-26T02:09:23.007Z,34.77
2019-04-26T02:11:50.337Z,34.85
2019-04-26T02:14:17.524Z,34.92
2019-04-26T02:16:44.766Z,34.97
2019-04-26T02:19:11.657Z,35.02
2019-04-26T02:21:38.671Z,34.99
2019-04-26T02:24:05.616Z,35.01
2019-04-26T02:26:32.692Z,35.06
2019-04-26T02:29:00.008Z,35.00
2019-04-26T02:31:28.625Z,35.02
2019-04-26T02:33:55.481Z,34.99
2019-04-26T02:36:22.420Z,35.02
2019-04-26T02:38:49.395Z,35.16
2019-04-26T02:41:16.248Z,35.17
2019-04-26T02:43:43.129Z,35.26
2019-04-26T02:46:10.368Z,35.38
2019-04-26T02:48:37.977Z,35.39
2019-04-26T02:51:06.033Z,35.43
2019-04-26T02:53:33.748Z,35.47
2019-04-26T02:56:01.475Z,35.50
2019-04-26T02:58:30.070Z,35.49
2019-04-26T03:00:57.242Z,35.43
2019-04-26T03:03:24.120Z,35.50
2019-04-26T03:05:51.100Z,35.49
2019-04-26T03:08:18.034Z,35.61
2019-04-26T03:10:45.071Z,35.70
2019-04-26T03:13:11.997Z,35.78
2019-04-26T03:15:38.999Z,35.79
2019-04-26T03:18:06.274Z,35.85
2019-04-26T03:20:34.510Z,35.98
2019-04-26T03:23:02.300Z,36.11
2019-04-26T03:25:29.174Z,36.19
2019-04-26T03:27:57.362Z,36.22
2019-04-26T03:30:24.777Z,36.27
2019-04-26T03:32:54.165Z,36.42
2019-04-26T03:35:20.301Z,36.61
2019-04-26T03:37:47.558Z,36.86
2019-04-26T03:40:14.457Z,37.07
2019-04-26T03:42:42.867Z,37.24
2019-04-26T03:45:10.021Z,37.38
2019-04-26T03:47:38.714Z,37.52
2019-04-26T03:50:06.497Z,37.69
2019-04-26T03:52:35.342Z,37.77
2019-04-26T03:55:02.018Z,37.83
2019-04-26T03:57:29.193Z,38.02
2019-04-26T03:59:56.206Z,38.14
2019-04-26T04:02:23.380Z,38.27
2019-04-26T04:04:50.627Z,38.48
2019-04-26T04:07:17.506Z,38.68
2019-04-26T04:09:44.820Z,38.85
2019-04-26T04:12:12.483Z,38.93
2019-04-26T04:14:40.489Z,39.00
2019-04-26T04:17:08.479Z,38.97
2019-04-26T04:19:35.424Z,38.91
2019-04-26T04:22:02.363Z,38.92
2019-04-26T04:24:29.581Z,38.94
2019-04-26T04:26:56.523Z,38.97
2019-04-26T04:29:39.344Z,38.97
2019-04-26T04:31:53.374Z,38.92
2019-04-26T04:34:20.331Z,38.99
2019-04-26T04:36:50.703Z,39.06
2019-04-26T04:39:15.786Z,39.08
2019-04-26T04:41:42.992Z,39.19
2019-04-26T04:44:09.954Z,39.23
2019-04-26T04:46:37.106Z,39.18
2019-04-26T04:49:04.057Z,39.10
2019-04-26T04:51:30.932Z,38.93
2019-04-26T04:53:57.864Z,38.84
2019-04-26T04:56:25.117Z,38.84
2019-04-26T04:58:52.495Z,38.74
2019-04-26T05:01:19.900Z,38.69
2019-04-26T05:03:46.972Z,38.56
2019-04-26T05:06:14.290Z,38.54
2019-04-26T05:08:41.157Z,38.34
2019-04-26T05:11:08.016Z,38.13
2019-04-26T05:13:34.929Z,37.96
2019-04-26T05:16:01.918Z,37.80
2019-04-26T05:18:29.137Z,37.64
2019-04-26T05:20:55.993Z,37.49
2019-04-26T05:23:22.858Z,37.29
2019-04-26T05:25:49.816Z,36.94
2019-04-26T05:28:16.757Z,36.62
2019-04-26T05:30:43.638Z,36.19
2019-04-26T05:33:10.912Z,35.92
2019-04-26T05:35:37.774Z,35.67
2019-04-26T05:38:04.657Z,35.37
2019-04-26T05:40:31.953Z,35.15
2019-04-26T05:42:58.856Z,34.97
2019-04-26T05:45:26.042Z,34.68
2019-04-26T05:48:06.199Z,34.37
2019-04-26T05:50:21.794Z,34.12
2019-04-26T05:52:50.108Z,33.90
2019-04-26T05:55:17.500Z,33.78
2019-04-26T05:57:44.512Z,33.66
2019-04-26T06:00:11.716Z,33.59
2019-04-26T06:02:38.660Z,33.49
2019-04-26T06:05:06.945Z,33.32
2019-04-26T06:07:33.822Z,33.17
2019-04-26T06:10:01.145Z,33.01
2019-04-26T06:12:28.085Z,32.84
2019-04-26T06:14:55.042Z,32.66
2019-04-26T06:17:22.296Z,32.55
2019-04-26T06:19:49.237Z,32.26
2019-04-26T06:22:16.484Z,32.04
2019-04-26T06:24:43.665Z,31.80
2019-04-26T06:27:14.082Z,31.67
2019-04-26T06:29:39.154Z,31.58
2019-04-26T06:32:06.049Z,31.43
2019-04-26T06:34:32.987Z,31.22
2019-04-26T06:36:59.911Z,31.00
2019-04-26T06:39:26.832Z,30.69
2019-04-26T06:41:54.760Z,30.50
2019-04-26T06:44:22.484Z,30.29
2019-04-26T06:46:49.438Z,30.12
2019-04-26T06:49:16.770Z,29.87
2019-04-26T06:51:44.041Z,29.54
2019-04-26T06:54:11.319Z,29.19
2019-04-26T06:56:38.536Z,28.79
2019-04-26T06:59:05.868Z,28.39
2019-04-26T07:01:33.156Z,28.03
2019-04-26T07:04:00.100Z,27.84
2019-04-26T07:06:34.855Z,27.61
2019-04-26T07:08:57.766Z,27.35
2019-04-26T07:11:27.218Z,27.11
2019-04-26T07:13:54.130Z,26.80
2019-04-26T07:16:23.248Z,26.61
2019-04-26T07:18:50.590Z,26.27
2019-04-26T07:21:17.561Z,26.09
2019-04-26T07:23:45.518Z,25.93
2019-04-26T07:26:13.658Z,25.85
2019-04-26T07:28:40.665Z,25.67
2019-04-26T07:31:08.305Z,25.58
2019-04-26T07:33:35.539Z,25.41
2019-04-26T07:36:03.827Z,25.18
2019-04-26T07:38:31.258Z,25.03
2019-04-26T07:40:58.208Z,24.80
2019-04-26T07:43:25.393Z,24.64
2019-04-26T07:45:52.317Z,24.53
2019-04-26T07:48:19.659Z,24.51
2019-04-26T07:50:46.689Z,24.44
2019-04-26T07:53:13.668Z,24.39
2019-04-26T07:55:40.567Z,24.28
2019-04-26T07:58:07.465Z,24.08
2019-04-26T08:00:44.342Z,24.12
2019-04-26T08:03:04.153Z,24.07
2019-04-26T08:05:31.946Z,24.06
2019-04-26T08:07:59.221Z,24.19
2019-04-26T08:10:26.197Z,24.23
2019-04-26T08:12:53.134Z,24.13
2019-04-26T08:15:20.364Z,24.03
2019-04-26T08:17:47.703Z,23.55
2019-04-26T08:20:15.490Z,22.77
2019-04-26T08:22:42.531Z,22.17
2019-04-26T08:25:10.363Z,21.75
2019-04-26T08:27:37.746Z,21.57
2019-04-26T08:30:10.496Z,21.80
2019-04-26T08:32:33.882Z,22.31
2019-04-26T08:35:02.298Z,22.59
2019-04-26T08:37:32.253Z,23.12
2019-04-26T08:39:58.521Z,23.52
2019-04-26T08:42:25.856Z,24.05
2019-04-26T08:44:53.006Z,24.48
2019-04-26T08:47:25.985Z,24.76
2019-04-26T08:49:49.049Z,24.68
2019-04-26T08:52:15.943Z,24.71
2019-04-26T08:54:42.896Z,24.63
2019-04-26T08:57:09.895Z,24.62
2019-04-26T08:59:36.825Z,24.72
2019-04-26T09:02:04.102Z,24.91
2019-04-26T09:04:30.983Z,25.05
2019-04-26T09:06:58.194Z,25.27
2019-04-26T09:09:25.081Z,25.45
2019-04-26T09:11:59.585Z,25.53
2019-04-26T09:14:20.661Z,25.56
2019-04-26T09:16:50.395Z,25.56
2019-04-26T09:19:16.184Z,25.68
2019-04-26T09:21:43.153Z,25.79
2019-04-26T09:24:10.031Z,25.92
2019-04-26T09:26:36.979Z,26.07
2019-04-26T09:29:04.176Z,26.23
2019-04-26T09:31:31.067Z,26.20
2019-04-26T09:33:58.593Z,26.14
2019-04-26T09:36:25.450Z,26.27
2019-04-26T09:38:52.314Z,26.36
2019-04-26T09:41:19.228Z,26.31
2019-04-26T09:43:46.582Z,26.36
2019-04-26T09:46:13.861Z,26.42
2019-04-26T09:48:41.084Z,26.50
2019-04-26T09:51:08.217Z,26.60
2019-04-26T09:53:35.226Z,26.69
2019-04-26T09:56:02.433Z,26.68
2019-04-26T09:58:30.830Z,26.76
2019-04-26T10:00:58.945Z,26.88
2019-04-26T10:03:26.122Z,27.03
2019-04-26T10:05:55.943Z,27.02
2019-04-26T10:08:22.131Z,26.97
2019-04-26T10:10:51.656Z,27.08
2019-04-26T10:13:18.101Z,27.06
2019-04-26T10:15:45.077Z,27.02
2019-04-26T10:18:11.938Z,26.95
2019-04-26T10:20:38.818Z,27.05
2019-04-26T10:23:06.117Z,27.12
2019-04-26T10:25:33.492Z,27.18
2019-04-26T10:28:00.465Z,27.34
2019-04-26T10:30:27.473Z,27.47
2019-04-26T10:32:58.222Z,27.69
2019-04-26T10:35:23.328Z,27.73
2019-04-26T10:37:52.509Z,27.64
2019-04-26T10:40:18.800Z,27.65
2019-04-26T10:42:45.702Z,27.63
2019-04-26T10:45:14.654Z,27.54
2019-04-26T10:47:41.463Z,27.33
2019-04-26T10:50:08.709Z,27.32
2019-04-26T10:52:35.636Z,27.36
2019-04-26T10:55:02.571Z,27.38
2019-04-26T10:57:29.921Z,27.33
2019-04-26T10:59:57.152Z,27.37
2019-04-26T11:02:24.024Z,27.39
2019-04-26T11:04:51.249Z,27.53
2019-04-26T11:07:18.813Z,27.61
2019-04-26T11:09:45.681Z,27.73
2019-04-26T11:12:12.893Z,27.84
2019-04-26T11:14:39.786Z,27.87
2019-04-26T11:17:06.736Z,27.99
2019-04-26T11:19:35.518Z,28.00
2019-04-26T11:22:02.173Z,28.06
2019-04-26T11:24:29.073Z,28.09
2019-04-26T11:26:56.211Z,28.23
2019-04-26T11:29:24.998Z,28.48
2019-04-26T11:31:54.104Z,28.41
2019-04-26T11:34:23.618Z,28.51
2019-04-26T11:36:49.985Z,28.39
2019-04-26T11:39:16.956Z,28.47
2019-04-26T11:41:44.269Z,28.55
2019-04-26T11:44:11.200Z,28.45
2019-04-26T11:46:44.569Z,28.34
2019-04-26T11:49:08.173Z,28.31
2019-04-26T11:51:35.595Z,28.17
2019-04-26T11:54:02.761Z,28.17
2019-04-26T11:56:34.002Z,28.21
2019-04-26T11:58:59.435Z,28.29
2019-04-26T12:01:26.294Z,28.24
2019-04-26T12:03:55.612Z,28.31
2019-04-26T12:06:22.079Z,28.41
2019-04-26T12:08:48.980Z,28.59
2019-04-26T12:11:18.622Z,28.64
2019-04-26T12:13:45.194Z,28.57
2019-04-26T12:16:14.571Z,28.47
2019-04-26T12:18:44.224Z,28.47
2019-04-26T12:21:09.709Z,28.46
2019-04-26T12:23:36.960Z,28.49
2019-04-26T12:26:04.223Z,28.38
2019-04-26T12:28:31.152Z,28.32
2019-04-26T12:30:58.757Z,28.24
2019-04-26T12:33:26.625Z,28.00
2019-04-26T12:35:57.197Z,28.03
2019-04-26T12:38:24.132Z,28.07
2019-04-26T12:40:50.654Z,28.12
2019-04-26T12:43:20.221Z,28.26
2019-04-26T12:45:47.388Z,28.47
2019-04-26T12:48:15.721Z,28.57
2019-04-26T12:50:43.705Z,28.56
2019-04-26T12:53:10.564Z,28.60
2019-04-26T12:55:37.433Z,28.59
2019-04-26T12:58:04.317Z,28.51
2019-04-26T13:00:32.956Z,28.33
2019-04-26T13:03:01.768Z,28.33
2019-04-26T13:05:29.064Z,28.46
2019-04-26T13:07:56.118Z,28.67
2019-04-26T13:10:22.981Z,28.80
2019-04-26T13:12:50.010Z,28.83
2019-04-26T13:15:17.908Z,28.92
2019-04-26T13:17:45.222Z,28.90
2019-04-26T13:20:12.488Z,28.87
2019-04-26T13:22:45.984Z,28.94
2019-04-26T13:25:15.386Z,29.00
2019-04-26T13:27:41.651Z,29.00
2019-04-26T13:30:06.821Z,29.01
2019-04-26T13:32:35.023Z,29.11
2019-04-26T13:35:01.909Z,29.16
2019-04-26T13:37:32.201Z,29.11
2019-04-26T13:39:58.732Z,28.88
2019-04-26T13:42:25.939Z,28.72
2019-04-26T13:44:53.081Z,28.66
2019-04-26T13:47:20.257Z,28.78
2019-04-26T13:49:48.220Z,28.89
2019-04-26T13:52:15.662Z,28.88
2019-04-26T13:54:42.521Z,28.95
2019-04-26T13:57:10.184Z,29.02
2019-04-26T13:59:37.745Z,29.09
2019-04-26T14:02:11.279Z,29.12
2019-04-26T14:04:33.576Z,29.13
2019-04-26T14:07:01.125Z,29.15
2019-04-26T14:09:28.001Z,29.24
2019-04-26T14:11:58.066Z,29.33
2019-04-26T14:14:24.133Z,29.37
2019-04-26T14:16:52.107Z,29.41
2019-04-26T14:19:20.258Z,29.47
2019-04-26T14:21:47.408Z,29.48
2019-04-26T14:24:14.301Z,29.50
2019-04-26T14:26:41.642Z,29.49
2019-04-26T14:29:08.578Z,29.48
2019-04-26T14:31:35.572Z,29.44
2019-04-26T14:34:05.444Z,29.44
2019-04-26T14:36:31.669Z,29.42
2019-04-26T14:39:05.694Z,29.42
2019-04-26T14:41:27.569Z,29.45
2019-04-26T14:43:56.758Z,29.53
2019-04-26T14:46:23.465Z,29.50
2019-04-26T14:49:00.841Z,29.49
2019-04-26T14:51:18.962Z,29.47
2019-04-26T14:53:46.232Z,29.52
2019-04-26T14:56:13.186Z,29.58
2019-04-26T14:58:40.053Z,29.59
2019-04-26T15:01:07.251Z,29.58
2019-04-26T15:03:34.393Z,29.53
2019-04-26T15:06:02.855Z,29.52
2019-04-26T15:08:32.150Z,29.50
2019-04-26T15:11:01.158Z,29.52
2019-04-26T15:13:27.709Z,29.53
2019-04-26T15:15:54.667Z,29.52
2019-04-26T15:18:22.555Z,29.52
2019-04-26T15:20:53.170Z,29.52
2019-04-26T15:23:19.407Z,29.58
2019-04-26T15:25:48.793Z,29.56
2019-04-26T15:28:15.275Z,29.54
2019-04-26T15:30:46.654Z,29.60
2019-04-26T15:33:12.821Z,29.56
2019-04-26T15:35:39.645Z,29.59
2019-04-26T15:38:07.318Z,29.61
2019-04-26T15:40:35.123Z,29.60
2019-04-26T15:43:03.551Z,29.56
2019-04-26T15:45:32.622Z,29.62
2019-04-26T15:47:59.393Z,29.64
2019-04-26T15:50:26.654Z,29.64
2019-04-26T15:52:53.626Z,29.62
2019-04-26T15:55:20.834Z,29.58
2019-04-26T15:57:48.093Z,29.55
2019-04-26T16:00:15.239Z,29.47
2019-04-26T16:02:42.728Z,29.45
2019-04-26T16:05:09.794Z,29.53
2019-04-26T16:07:36.727Z,29.54
2019-04-26T16:10:04.357Z,29.52
2019-04-26T16:12:32.077Z,29.57
2019-04-26T16:15:02.290Z,29.65
2019-04-26T16:17:29.272Z,29.78
2019-04-26T16:20:00.167Z,29.88
2019-04-26T16:22:30.145Z,29.93
2019-04-26T16:24:58.273Z,29.96
2019-04-26T16:27:30.717Z,30.12
2019-04-26T16:29:58.387Z,30.30
2019-04-26T16:32:23.013Z,30.47
2019-04-26T16:34:50.153Z,30.73
2019-04-26T16:37:21.627Z,31.11
2019-04-26T16:39:48.633Z,31.23
2019-04-26T16:42:15.154Z,31.67
2019-04-26T16:44:44.951Z,31.73
2019-04-26T16:47:13.095Z,31.78
2019-04-26T16:49:41.877Z,31.70
2019-04-26T16:52:08.156Z,31.62
2019-04-26T16:54:36.628Z,31.72
2019-04-26T16:57:06.832Z,31.89
2019-04-26T16:59:32.834Z,32.08
2019-04-26T17:02:02.440Z,32.27
2019-04-26T17:04:32.423Z,32.39
2019-04-26T17:07:01.771Z,32.80
2019-04-26T17:09:29.617Z,33.03
2019-04-26T17:11:55.157Z,33.54
2019-04-26T17:14:24.392Z,33.66
2019-04-26T17:16:53.043Z,33.75
2019-04-26T17:19:20.016Z,33.93
2019-04-26T17:21:47.364Z,34.04
2019-04-26T17:24:14.620Z,34.15
2019-04-26T17:26:42.784Z,34.22
2019-04-26T17:29:10.155Z,34.21
2019-04-26T17:31:37.406Z,34.21
2019-04-26T17:34:05.233Z,34.33
2019-04-26T17:36:34.409Z,34.46
2019-04-26T17:39:00.945Z,34.53
2019-04-26T17:41:31.049Z,34.61
2019-04-26T17:44:08.030Z,34.67
2019-04-26T17:46:26.949Z,34.74
2019-04-26T17:48:53.913Z,34.57
2019-04-26T17:51:23.084Z,34.49
2019-04-26T17:53:58.778Z,34.80
2019-04-26T17:56:18.040Z,35.23
2019-04-26T17:58:52.385Z,35.92
2019-04-26T18:01:33.315Z,36.53
2019-04-26T18:03:50.880Z,37.15
2019-04-26T18:06:14.145Z,37.81
2019-04-26T18:08:46.049Z,38.17
2019-04-26T18:11:07.884Z,38.58
2019-04-26T18:13:34.865Z,38.92
2019-04-26T18:16:03.617Z,39.23
2019-04-26T18:18:30.706Z,39.58
2019-04-26T18:20:57.913Z,39.84
2019-04-26T18:23:24.788Z,40.03
2019-04-26T18:25:52.681Z,40.12
2019-04-26T18:28:19.830Z,40.05
2019-04-26T18:30:47.733Z,40.14
2019-04-26T18:33:17.558Z,39.95
2019-04-26T18:35:45.235Z,39.67
2019-04-26T18:38:12.701Z,39.46
2019-04-26T18:40:58.894Z,39.34
2019-04-26T18:43:12.515Z,39.06
2019-04-26T18:45:37.668Z,38.87
2019-04-26T18:48:04.985Z,38.67
2019-04-26T18:50:32.863Z,38.55
2019-04-26T18:53:00.889Z,38.44
2019-04-26T18:55:29.902Z,38.22
2019-04-26T18:58:01.510Z,38.14
2019-04-26T19:00:28.921Z,38.32
2019-04-26T19:02:55.444Z,38.44
2019-04-26T19:05:27.036Z,38.27
2019-04-26T19:07:51.617Z,38.27
2019-04-26T19:10:18.954Z,38.30
2019-04-26T19:12:46.289Z,38.08
2019-04-26T19:15:13.259Z,37.92
2019-04-26T19:17:40.338Z,37.74
2019-04-26T19:20:07.876Z,37.68
2019-04-26T19:22:35.070Z,37.63
2019-04-26T19:25:02.131Z,37.53
2019-04-26T19:27:29.418Z,37.32
2019-04-26T19:29:56.657Z,37.26
2019-04-26T19:32:23.649Z,37.21
2019-04-26T19:34:52.363Z,37.09
2019-04-26T19:37:19.626Z,37.01
2019-04-26T19:39:46.785Z,36.95
2019-04-26T19:42:13.818Z,37.07
2019-04-26T19:44:42.089Z,37.13
2019-04-26T19:47:09.488Z,37.11
2019-04-26T19:49:36.792Z,37.10
2019-04-26T19:52:04.199Z,36.85
2019-04-26T19:54:36.835Z,36.64
2019-04-26T19:57:01.086Z,36.36
2019-04-26T19:59:31.475Z,36.33
2019-04-26T20:01:58.345Z,36.32
2019-04-26T20:04:30.559Z,36.37
2019-04-26T20:06:55.320Z,36.35
2019-04-26T20:09:26.208Z,36.47
2019-04-26T20:11:57.852Z,36.62
2019-04-26T20:14:35.442Z,36.76
2019-04-26T20:16:52.075Z,36.80
2019-04-26T20:19:32.435Z,37.08
2019-04-26T20:21:49.686Z,37.40
2019-04-26T20:24:19.368Z,37.17
2019-04-26T20:26:48.620Z,37.38
2019-04-26T20:29:15.832Z,37.58
2019-04-26T20:31:47.614Z,37.84
2019-04-26T20:34:15.281Z,37.88
2019-04-26T20:36:45.341Z,37.87
2019-04-26T20:39:08.713Z,37.79
2019-04-26T20:41:37.615Z,37.92
2019-04-26T20:44:09.607Z,38.04
2019-04-26T20:46:36.021Z,38.30
2019-04-26T20:49:07.925Z,38.49
2019-04-26T20:51:32.221Z,38.51
2019-04-26T20:53:59.629Z,38.65
2019-04-26T20:56:26.791Z,38.73
2019-04-26T20:58:53.717Z,38.68
2019-04-26T21:01:22.229Z,38.62
2019-04-26T21:03:51.238Z,38.72
2019-04-26T21:06:18.639Z,38.67
2019-04-26T21:08:45.660Z,38.75
2019-04-26T21:11:13.667Z,38.81
2019-04-26T21:13:41.554Z,38.90
2019-04-26T21:16:15.176Z,38.92
2019-04-26T21:18:43.871Z,39.05
2019-04-26T21:21:10.570Z,38.98
2019-04-26T21:23:40.010Z,39.08
2019-04-26T21:26:07.196Z,39.04
2019-04-26T21:28:38.040Z,38.99
2019-04-26T21:31:03.507Z,38.87
2019-04-26T21:33:35.873Z,38.71
2019-04-26T21:36:02.052Z,38.81
2019-04-26T21:38:29.686Z,38.84
2019-04-26T21:41:04.443Z,38.91
2019-04-26T21:43:29.448Z,38.88
2019-04-26T21:46:07.261Z,38.80
2019-04-26T21:48:24.843Z,38.93
2019-04-26T21:50:53.657Z,39.00
2019-04-26T21:53:20.368Z,39.03
2019-04-26T21:55:47.670Z,38.99
2019-04-26T21:58:14.810Z,38.94
2019-04-26T22:00:43.552Z,38.87
2019-04-26T22:03:15.783Z,38.79
2019-04-26T22:05:43.958Z,38.73
2019-04-26T22:08:09.348Z,38.79
2019-04-26T22:10:39.524Z,38.84
2019-04-26T22:13:05.653Z,38.85
2019-04-26T22:15:37.308Z,38.73
2019-04-26T22:18:03.222Z,38.76
2019-04-26T22:20:30.333Z,38.72
2019-04-26T22:22:57.261Z,38.64
2019-04-26T22:25:25.545Z,38.46
2019-04-26T22:27:54.032Z,38.37
2019-04-26T22:30:22.730Z,38.25
2019-04-26T22:32:54.623Z,38.25
2019-04-26T22:35:21.483Z,38.33
2019-04-26T22:37:48.366Z,38.37
2019-04-26T22:40:19.543Z,38.40
2019-04-26T22:42:44.144Z,38.31
2019-04-26T22:45:13.432Z,38.24
2019-04-26T22:47:42.639Z,38.29
2019-04-26T22:50:13.985Z,38.28
2019-04-26T22:52:39.254Z,38.33
2019-04-26T22:55:06.505Z,38.38
2019-04-26T22:57:33.769Z,38.56
2019-04-26T23:00:00.659Z,38.72
2019-04-26T23:19:59.228Z,39.48
2019-04-26T23:22:31.047Z,39.71
2019-04-26T23:24:58.036Z,39.55
2019-04-26T23:27:23.717Z,39.37
2019-04-26T23:29:56.825Z,39.12
2019-04-26T23:32:20.145Z,39.02
2019-04-26T23:34:47.221Z,39.07
2019-04-26T23:37:14.493Z,39.11
2019-04-26T23:39:42.945Z,39.00
2019-04-26T23:42:12.338Z,38.97
2019-04-26T23:44:40.201Z,38.90
2019-04-26T23:47:18.503Z,38.86
2019-04-26T23:49:36.605Z,38.89
2019-04-26T23:52:03.769Z,38.91
2019-04-26T23:54:32.325Z,38.88
2019-04-26T23:56:59.375Z,38.80
2019-04-26T23:59:26.336Z,38.67
